Time;durP1;ratioP1;P1;durP2;ratioP2;P2;SDS_P1;SDS_P2;PMS_P1;PMS_P2;Temp;Humidity;BMP_temperature;BMP_pressure;BME280_temperature;BME280_humidity;BME280_pressure;Samples;Min_cycle;Max_cycle;Signal;HPM_P1;HPM_P2
2022/10/16 00:00:57;;;;;;;12.25;7.05;;;12.40;99.90;;;;;;5033455;28;20173;-61
2022/10/16 00:03:22;;;;;;;10.45;6.90;;;12.40;99.90;;;;;;5033245;28;20593;-61
2022/10/16 00:05:48;;;;;;;10.55;6.72;;;12.40;99.90;;;;;;5032642;28;20179;-62
2022/10/16 00:08:14;;;;;;;10.10;7.10;;;12.30;99.90;;;;;;5033213;28;20172;-61
2022/10/16 00:10:40;;;;;;;9.05;6.68;;;12.30;99.90;;;;;;5033313;28;20217;-62
2022/10/16 00:13:07;;;;;;;11.75;6.82;;;12.30;99.90;;;;;;5031850;28;20199;-62
2022/10/16 00:15:38;;;;;;;7.95;6.20;;;12.30;99.90;;;;;;5033110;28;20213;-62
2022/10/16 00:18:05;;;;;;;7.30;6.18;;;12.30;99.90;;;;;;5033143;28;20179;-62
2022/10/16 00:20:34;;;;;;;8.07;6.30;;;12.30;99.90;;;;;;5033192;28;20243;-61
2022/10/16 00:23:00;;;;;;;8.13;6.22;;;12.30;99.90;;;;;;5033051;28;20229;-61
2022/10/16 00:25:26;;;;;;;7.78;6.15;;;12.20;99.90;;;;;;5033084;28;20182;-61
2022/10/16 00:27:51;;;;;;;9.80;6.00;;;12.20;99.90;;;;;;5032970;28;20195;-63
2022/10/16 00:30:17;;;;;;;11.07;6.43;;;12.20;99.90;;;;;;5032917;28;20171;-62
2022/10/16 00:32:43;;;;;;;7.53;6.22;;;12.20;99.90;;;;;;5033014;28;20195;-62
2022/10/16 00:35:09;;;;;;;9.98;6.13;;;12.10;99.90;;;;;;5033035;28;20247;-61
2022/10/16 00:37:34;;;;;;;6.88;5.80;;;12.10;99.90;;;;;;5033050;28;20254;-62
2022/10/16 00:40:00;;;;;;;9.65;6.18;;;12.20;99.90;;;;;;5033041;28;20257;-62
2022/10/16 00:42:26;;;;;;;9.50;6.90;;;12.10;99.90;;;;;;5032817;28;20669;-62
2022/10/16 00:44:56;;;;;;;9.85;6.07;;;12.10;99.90;;;;;;5033577;28;20361;-62
2022/10/16 00:47:39;;;;;;;7.88;6.30;;;12.10;99.90;;;;;;5033184;28;20189;-62
2022/10/16 00:50:31;;;;;;;9.70;6.55;;;12.00;99.90;;;;;;5033410;28;20269;-62
2022/10/16 00:52:58;;;;;;;8.32;6.45;;;12.10;99.90;;;;;;5031580;28;20203;-62
2022/10/16 00:55:24;;;;;;;11.68;6.30;;;12.10;99.90;;;;;;5033450;28;20211;-62
2022/10/16 00:57:51;;;;;;;7.65;6.18;;;12.00;99.90;;;;;;5034058;28;20178;-62
2022/10/16 01:00:20;;;;;;;7.38;5.32;;;12.00;99.90;;;;;;5032938;28;20171;-62
2022/10/16 01:02:54;;;;;;;7.60;6.15;;;12.00;99.90;;;;;;5032794;28;20194;-63
2022/10/16 01:05:23;;;;;;;7.75;6.70;;;12.10;99.90;;;;;;5031501;28;20179;-62
2022/10/16 01:08:12;;;;;;;6.70;5.57;;;12.10;99.90;;;;;;5032865;28;20167;-62
2022/10/16 01:10:40;;;;;;;7.53;5.90;;;12.10;99.90;;;;;;5033517;28;20164;-62
2022/10/16 01:13:12;;;;;;;7.85;6.32;;;12.10;99.90;;;;;;5032928;28;20191;-62
2022/10/16 01:15:53;;;;;;;8.07;6.03;;;12.00;99.90;;;;;;5032787;28;20191;-62
2022/10/16 01:18:32;;;;;;;8.75;6.60;;;12.00;99.90;;;;;;5034855;28;20174;-62
2022/10/16 01:21:09;;;;;;;11.43;6.50;;;12.00;99.90;;;;;;5036391;28;20167;-62
2022/10/16 01:24:15;;;;;;;12.40;6.72;;;12.00;99.90;;;;;;5036205;28;20190;-62
2022/10/16 01:27:16;;;;;;;10.02;6.50;;;12.00;99.90;;;;;;5036178;28;20163;-62
2022/10/16 01:30:14;;;;;;;8.23;5.82;;;12.00;99.90;;;;;;5034764;28;20187;-62
2022/10/16 01:32:49;;;;;;;7.50;6.20;;;11.90;99.90;;;;;;5035384;28;20214;-63
2022/10/16 01:35:29;;;;;;;11.07;6.10;;;11.90;99.90;;;;;;5036221;28;20225;-62
2022/10/16 01:38:10;;;;;;;9.90;6.53;;;11.90;99.90;;;;;;5034698;28;20170;-62
2022/10/16 01:40:39;;;;;;;10.13;5.80;;;11.90;99.90;;;;;;5036175;28;20167;-62
2022/10/16 01:43:19;;;;;;;8.73;5.68;;;12.00;99.90;;;;;;5036022;28;20187;-63
2022/10/16 01:45:45;;;;;;;7.45;5.57;;;11.90;99.90;;;;;;5035781;28;20215;-62
2022/10/16 01:48:19;;;;;;;7.35;5.80;;;11.90;99.90;;;;;;5035638;28;20183;-62
2022/10/16 01:51:12;;;;;;;9.38;5.75;;;11.90;99.90;;;;;;5034505;28;20265;-62
2022/10/16 01:53:40;;;;;;;7.38;5.40;;;11.90;99.90;;;;;;5035711;28;20202;-62
2022/10/16 01:56:10;;;;;;;11.25;5.70;;;11.90;99.90;;;;;;5035642;28;20230;-62
2022/10/16 01:58:43;;;;;;;7.05;5.47;;;11.90;99.90;;;;;;5034363;28;20171;-62
2022/10/16 02:01:12;;;;;;;8.98;5.57;;;11.90;99.90;;;;;;5035597;28;20152;-61
2022/10/16 02:03:42;;;;;;;8.30;5.72;;;11.90;99.90;;;;;;5035417;28;20194;-62
2022/10/16 02:06:08;;;;;;;8.00;4.97;;;11.80;99.90;;;;;;5035457;28;20170;-62
2022/10/16 02:08:35;;;;;;;6.30;4.13;;;11.90;99.90;;;;;;5035365;28;20258;-62
2022/10/16 02:11:01;;;;;;;6.10;4.00;;;12.00;99.90;;;;;;5035622;28;20288;-62
2022/10/16 02:13:30;;;;;;;8.27;4.50;;;12.00;99.90;;;;;;5035752;28;20202;-62
2022/10/16 02:15:56;;;;;;;6.32;4.18;;;12.10;99.90;;;;;;5035061;28;20277;-62
2022/10/16 02:18:22;;;;;;;7.63;4.85;;;12.10;99.90;;;;;;5035023;28;20690;-62
2022/10/16 02:21:06;;;;;;;6.45;4.22;;;12.20;99.90;;;;;;5035437;28;20172;-63
2022/10/16 02:23:45;;;;;;;6.63;3.92;;;12.20;99.90;;;;;;5035184;28;20679;-62
2022/10/16 02:26:17;;;;;;;4.30;3.90;;;12.20;99.90;;;;;;5035553;28;20166;-61
2022/10/16 02:28:52;;;;;;;7.68;3.95;;;12.30;99.90;;;;;;5034573;28;20199;-62
2022/10/16 02:31:27;;;;;;;5.05;3.88;;;12.30;99.90;;;;;;5033613;28;20646;-62
2022/10/16 02:33:56;;;;;;;4.63;4.10;;;12.30;99.90;;;;;;5034877;28;20197;-62
2022/10/16 02:36:22;;;;;;;5.47;4.00;;;12.40;99.90;;;;;;5035092;28;20202;-61
2022/10/16 02:38:48;;;;;;;5.18;3.85;;;12.40;99.90;;;;;;5033626;28;20171;-62
2022/10/16 02:41:14;;;;;;;4.32;3.95;;;12.40;99.90;;;;;;5034777;28;20175;-62
2022/10/16 02:43:40;;;;;;;5.55;4.15;;;12.40;99.90;;;;;;5034739;28;20191;-62
2022/10/16 02:46:06;;;;;;;6.57;4.43;;;12.40;99.90;;;;;;5034675;28;20183;-62
2022/10/16 02:48:32;;;;;;;4.25;3.83;;;12.40;99.90;;;;;;5035724;28;20183;-62
2022/10/16 02:50:57;;;;;;;4.28;3.92;;;12.40;99.90;;;;;;5035413;28;20175;-62
2022/10/16 02:53:23;;;;;;;4.85;3.70;;;12.30;99.90;;;;;;5034679;28;20191;-62
2022/10/16 02:55:49;;;;;;;4.00;3.70;;;12.30;99.90;;;;;;5034668;28;20667;-62
2022/10/16 02:58:15;;;;;;;3.92;3.63;;;12.20;99.90;;;;;;5034809;28;20168;-62
2022/10/16 03:00:41;;;;;;;4.00;3.70;;;12.20;99.90;;;;;;5034200;28;20167;-62
2022/10/16 03:03:07;;;;;;;4.10;3.70;;;12.10;99.90;;;;;;5034235;28;20214;-62
2022/10/16 03:05:33;;;;;;;6.25;4.18;;;12.10;99.90;;;;;;5034266;28;20636;-61
2022/10/16 03:08:00;;;;;;;3.65;3.35;;;12.10;99.90;;;;;;5034218;28;20171;-62
2022/10/16 03:10:27;;;;;;;4.30;3.70;;;12.10;99.90;;;;;;5034467;28;20168;-62
2022/10/16 03:12:52;;;;;;;3.95;3.60;;;12.10;99.90;;;;;;5034170;28;20203;-62
2022/10/16 03:15:18;;;;;;;5.13;3.70;;;12.10;99.90;;;;;;5032624;28;20214;-62
2022/10/16 03:17:44;;;;;;;5.00;4.20;;;12.10;99.90;;;;;;5034005;28;20244;-61
2022/10/16 03:20:10;;;;;;;5.38;3.60;;;12.10;99.90;;;;;;5034574;28;20508;-61
2022/10/16 03:22:35;;;;;;;4.20;3.80;;;12.20;99.90;;;;;;5032634;28;20191;-61
2022/10/16 03:25:01;;;;;;;4.10;3.80;;;12.20;99.90;;;;;;5034134;28;20179;-61
2022/10/16 03:27:27;;;;;;;4.18;3.78;;;12.20;99.90;;;;;;5033780;28;20195;-62
2022/10/16 03:29:53;;;;;;;4.40;4.00;;;12.30;99.90;;;;;;5032538;28;20190;-62
2022/10/16 03:32:19;;;;;;;4.75;3.78;;;12.30;99.90;;;;;;5033709;28;20195;-62
2022/10/16 03:34:45;;;;;;;5.60;3.42;;;12.30;99.90;;;;;;5033718;28;20671;-61
2022/10/16 03:37:11;;;;;;;4.20;3.80;;;12.40;99.90;;;;;;5034043;28;20174;-61
2022/10/16 03:39:37;;;;;;;3.92;3.63;;;12.30;99.90;;;;;;5034155;28;20152;-62
2022/10/16 03:42:03;;;;;;;5.22;3.80;;;12.40;99.90;;;;;;5032794;28;20229;-62
2022/10/16 03:44:28;;;;;;;4.10;3.70;;;12.40;99.90;;;;;;5033650;28;20175;-62
2022/10/16 03:46:54;;;;;;;3.85;3.50;;;12.50;99.90;;;;;;5033559;28;20175;-62
2022/10/16 03:49:20;;;;;;;3.88;3.33;;;12.60;99.90;;;;;;5033574;28;20244;-62
2022/10/16 03:51:45;;;;;;;3.70;3.40;;;12.60;99.90;;;;;;5032209;28;20542;-62
2022/10/16 03:54:11;;;;;;;3.90;3.35;;;12.70;99.90;;;;;;5032113;28;20198;-61
2022/10/16 03:56:37;;;;;;;4.22;3.35;;;12.70;99.90;;;;;;5033327;28;20210;-61
2022/10/16 03:59:03;;;;;;;6.45;3.28;;;12.80;99.90;;;;;;5033416;28;20185;-61
2022/10/16 04:01:28;;;;;;;6.95;3.53;;;12.80;99.90;;;;;;5033414;28;20193;-62
2022/10/16 04:03:54;;;;;;;3.55;3.25;;;12.70;99.90;;;;;;5033256;28;20234;-62
2022/10/16 04:06:20;;;;;;;3.67;3.38;;;12.70;99.90;;;;;;5033374;28;20167;-62
2022/10/16 04:08:45;;;;;;;3.00;2.80;;;12.70;99.90;;;;;;5033377;28;20224;-62
2022/10/16 04:11:11;;;;;;;3.42;3.03;;;12.70;99.90;;;;;;5033243;28;20186;-62
2022/10/16 04:13:37;;;;;;;3.40;3.20;;;12.60;99.90;;;;;;5033171;28;20202;-62
2022/10/16 04:16:03;;;;;;;4.90;3.55;;;12.60;99.90;;;;;;5033263;28;20203;-62
2022/10/16 04:18:29;;;;;;;4.72;3.30;;;12.50;99.90;;;;;;5031854;28;20216;-62
2022/10/16 04:20:55;;;;;;;4.03;3.65;;;12.50;99.90;;;;;;5033217;28;20167;-62
2022/10/16 04:23:22;;;;;;;3.70;2.88;;;12.50;99.90;;;;;;5033295;28;20216;-62
2022/10/16 04:25:48;;;;;;;4.32;3.33;;;12.50;99.90;;;;;;5031868;28;20186;-61
2022/10/16 04:28:14;;;;;;;3.20;2.90;;;12.40;99.90;;;;;;5033029;28;20558;-61
2022/10/16 04:30:40;;;;;;;3.50;3.20;;;12.50;99.90;;;;;;5033560;28;20187;-62
2022/10/16 04:33:06;;;;;;;3.38;3.08;;;12.50;99.90;;;;;;5033605;28;20191;-61
2022/10/16 04:35:31;;;;;;;3.83;3.53;;;12.40;99.90;;;;;;5033263;28;20667;-61
2022/10/16 04:37:58;;;;;;;4.85;3.20;;;12.50;99.90;;;;;;5033109;28;20191;-61
2022/10/16 04:40:24;;;;;;;4.57;3.28;;;12.50;99.90;;;;;;5032964;28;20168;-61
2022/10/16 04:42:49;;;;;;;3.15;2.95;;;12.50;99.90;;;;;;5031636;28;20257;-61
2022/10/16 04:45:16;;;;;;;3.97;3.15;;;12.50;99.90;;;;;;5032988;28;20254;-61
2022/10/16 04:47:41;;;;;;;3.28;3.08;;;12.50;99.90;;;;;;5032722;28;20222;-61
2022/10/16 04:50:07;;;;;;;3.20;3.00;;;12.50;99.90;;;;;;5032869;28;20175;-61
2022/10/16 04:52:33;;;;;;;4.25;3.03;;;12.50;99.90;;;;;;5034161;28;20561;-61
2022/10/16 04:55:02;;;;;;;3.53;3.22;;;12.50;99.90;;;;;;5036617;28;20199;-61
2022/10/16 04:57:28;;;;;;;3.25;2.80;;;12.60;99.90;;;;;;5036689;28;20174;-61
2022/10/16 04:59:54;;;;;;;3.03;2.83;;;12.60;99.90;;;;;;5037267;28;20171;-62
2022/10/16 05:02:19;;;;;;;3.17;2.97;;;12.60;99.90;;;;;;5036524;28;20198;-61
2022/10/16 05:04:45;;;;;;;3.20;3.00;;;12.60;99.90;;;;;;5036602;28;20222;-61
2022/10/16 05:07:11;;;;;;;4.05;3.10;;;12.60;99.90;;;;;;5036615;28;20246;-62
2022/10/16 05:09:37;;;;;;;10.57;3.03;;;12.60;99.90;;;;;;5036575;28;20543;-61
2022/10/16 05:12:03;;;;;;;3.28;2.65;;;12.60;99.90;;;;;;5036347;28;20179;-62
2022/10/16 05:14:29;;;;;;;2.80;2.60;;;12.60;99.90;;;;;;5036964;28;20258;-61
2022/10/16 05:16:55;;;;;;;3.20;3.00;;;12.60;99.90;;;;;;5036299;28;20656;-61
2022/10/16 05:19:20;;;;;;;5.25;2.80;;;12.50;99.90;;;;;;5036267;28;20171;-61
2022/10/16 05:21:46;;;;;;;3.03;2.83;;;12.50;99.90;;;;;;5036755;28;20168;-61
2022/10/16 05:24:12;;;;;;;2.95;2.72;;;12.50;99.90;;;;;;5035956;28;20286;-60
2022/10/16 05:26:38;;;;;;;3.75;2.80;;;12.50;99.90;;;;;;5035077;28;20175;-61
2022/10/16 05:29:04;;;;;;;4.72;2.95;;;12.50;99.90;;;;;;5035874;28;20191;-61
2022/10/16 05:31:29;;;;;;;3.17;2.97;;;12.50;99.90;;;;;;5035799;28;20203;-61
2022/10/16 05:34:02;;;;;;;5.75;3.13;;;12.40;99.90;;;;;;5034579;28;20195;-62
2022/10/16 05:36:27;;;;;;;3.13;2.92;;;12.40;99.90;;;;;;5035666;28;20612;-61
2022/10/16 05:38:53;;;;;;;3.38;3.05;;;12.40;99.90;;;;;;5035879;28;20228;-61
2022/10/16 05:41:21;;;;;;;4.07;2.88;;;12.30;99.90;;;;;;5035690;28;20171;-60
2022/10/16 05:43:48;;;;;;;3.28;3.08;;;12.30;99.90;;;;;;5035607;28;20187;-61
2022/10/16 05:46:14;;;;;;;3.85;2.90;;;12.30;99.90;;;;;;5035547;28;20302;-60
2022/10/16 05:48:40;;;;;;;3.33;3.10;;;12.30;99.90;;;;;;5035551;28;20187;-61
2022/10/16 05:51:09;;;;;;;5.30;3.35;;;12.30;99.90;;;;;;5035575;28;20167;-61
2022/10/16 05:53:36;;;;;;;4.07;3.05;;;12.30;99.90;;;;;;5035445;28;20663;-61
2022/10/16 05:56:03;;;;;;;3.55;3.25;;;12.30;99.90;;;;;;5036018;28;20195;-61
2022/10/16 05:58:35;;;;;;;3.75;3.00;;;12.30;99.90;;;;;;5036046;28;20174;-61
2022/10/16 06:01:07;;;;;;;3.75;2.80;;;12.30;99.90;;;;;;5035329;28;20234;-61
2022/10/16 06:03:33;;;;;;;3.42;3.00;;;12.30;99.90;;;;;;5033590;28;20277;-61
2022/10/16 06:06:07;;;;;;;3.08;2.88;;;12.30;99.90;;;;;;5035552;28;20249;-66
2022/10/16 06:08:32;;;;;;;3.17;2.85;;;12.40;99.90;;;;;;5034429;28;20209;-65
2022/10/16 06:11:03;;;;;;;6.22;3.05;;;12.40;99.90;;;;;;5034264;28;20192;-67
2022/10/16 06:13:29;;;;;;;2.92;2.72;;;12.40;99.90;;;;;;5035428;28;20195;-66
2022/10/16 06:15:58;;;;;;;4.68;2.95;;;12.40;99.90;;;;;;5035163;28;20614;-67
2022/10/16 06:18:24;;;;;;;3.53;3.22;;;12.50;99.90;;;;;;5035247;28;20309;-65
2022/10/16 06:20:50;;;;;;;3.50;3.20;;;12.50;99.90;;;;;;5035478;28;20174;-65
2022/10/16 06:23:17;;;;;;;3.65;3.30;;;12.50;99.90;;;;;;5035124;28;20565;-65
2022/10/16 06:25:43;;;;;;;3.10;2.88;;;12.60;99.90;;;;;;5035410;28;20179;-65
2022/10/16 06:28:09;;;;;;;7.65;3.22;;;12.60;99.90;;;;;;5035131;28;20538;-65
2022/10/16 06:30:34;;;;;;;3.40;3.10;;;12.60;99.90;;;;;;5035064;28;20183;-65
2022/10/16 06:33:00;;;;;;;5.45;3.50;;;12.70;99.90;;;;;;5033645;28;20199;-65
2022/10/16 06:35:26;;;;;;;3.35;3.08;;;12.70;99.90;;;;;;5034947;28;20198;-65
2022/10/16 06:37:53;;;;;;;3.15;2.90;;;12.70;99.90;;;;;;5033562;28;20643;-65
2022/10/16 06:40:19;;;;;;;3.30;3.03;;;12.70;99.90;;;;;;5035173;28;20224;-65
2022/10/16 06:42:44;;;;;;;3.72;3.40;;;12.70;99.90;;;;;;5034762;28;20741;-65
2022/10/16 06:45:11;;;;;;;4.13;3.28;;;12.80;99.90;;;;;;5034984;28;20659;-65
2022/10/16 06:47:36;;;;;;;3.72;3.33;;;12.80;99.90;;;;;;5033588;28;20191;-65
2022/10/16 06:50:03;;;;;;;5.05;3.35;;;12.80;99.90;;;;;;5035047;28;20175;-65
2022/10/16 06:52:29;;;;;;;3.63;3.33;;;12.90;99.90;;;;;;5034823;28;20195;-66
2022/10/16 06:54:55;;;;;;;3.45;3.17;;;12.90;99.90;;;;;;5035001;28;20562;-66
2022/10/16 06:57:21;;;;;;;3.47;2.92;;;13.00;99.90;;;;;;5034740;28;20175;-65
2022/10/16 06:59:46;;;;;;;3.10;2.90;;;13.10;99.90;;;;;;5034722;28;20182;-65
2022/10/16 07:02:12;;;;;;;3.30;3.10;;;13.10;99.90;;;;;;5034493;28;20195;-65
2022/10/16 07:04:38;;;;;;;4.28;2.75;;;13.20;99.90;;;;;;5034464;28;20198;-67
2022/10/16 07:07:03;;;;;;;3.13;2.65;;;13.20;99.90;;;;;;5034285;28;20183;-67
2022/10/16 07:09:29;;;;;;;4.50;3.03;;;13.30;99.90;;;;;;5034534;28;20671;-67
2022/10/16 07:11:55;;;;;;;5.80;3.00;;;13.30;99.90;;;;;;5034535;28;20159;-67
2022/10/16 07:14:21;;;;;;;3.30;3.00;;;13.30;99.90;;;;;;5034441;28;20194;-67
2022/10/16 07:16:48;;;;;;;2.85;2.65;;;13.40;99.90;;;;;;5033728;28;20203;-67
2022/10/16 07:19:17;;;;;;;3.78;2.97;;;13.40;99.90;;;;;;5034106;28;20179;-67
2022/10/16 07:21:43;;;;;;;2.92;2.53;;;13.50;99.90;;;;;;5032834;28;20348;-67
2022/10/16 07:24:14;;;;;;;3.28;2.88;;;13.70;99.90;;;;;;5034206;28;20670;-63
2022/10/16 07:26:42;;;;;;;4.47;3.35;;;13.80;99.90;;;;;;5033786;28;20595;-63
2022/10/16 07:29:17;;;;;;;3.30;3.00;;;13.90;99.90;;;;;;5033768;28;20694;-63
2022/10/16 07:31:44;;;;;;;3.40;3.10;;;14.00;99.90;;;;;;5033791;28;20181;-63
2022/10/16 07:34:12;;;;;;;5.78;2.85;;;14.20;99.90;;;;;;5033656;28;20199;-63
2022/10/16 07:36:38;;;;;;;3.40;3.17;;;14.40;99.90;;;;;;5032356;28;20211;-63
2022/10/16 07:39:04;;;;;;;3.92;2.70;;;14.50;99.90;;;;;;5033694;28;20172;-63
2022/10/16 07:41:32;;;;;;;3.80;3.50;;;14.50;99.90;;;;;;5033618;28;20263;-63
2022/10/16 07:44:00;;;;;;;2.88;2.60;;;14.60;99.90;;;;;;5034390;28;20578;-63
2022/10/16 07:46:26;;;;;;;2.83;2.63;;;14.60;99.90;;;;;;5032186;28;20237;-63
2022/10/16 07:48:52;;;;;;;2.90;2.70;;;14.60;99.90;;;;;;5033534;28;20212;-62
2022/10/16 07:51:20;;;;;;;4.32;2.90;;;14.70;99.90;;;;;;5033751;28;20170;-63
2022/10/16 07:53:47;;;;;;;3.42;2.80;;;14.70;99.90;;;;;;5032755;28;20199;-63
2022/10/16 07:56:13;;;;;;;3.75;2.85;;;14.90;99.90;;;;;;5032056;28;20260;-63
2022/10/16 07:58:39;;;;;;;2.95;2.75;;;14.90;99.90;;;;;;5032134;28;20244;-63
2022/10/16 08:01:07;;;;;;;3.10;2.80;;;14.80;99.90;;;;;;5031911;28;20180;-63
2022/10/16 08:03:33;;;;;;;4.32;3.17;;;14.70;99.90;;;;;;5031875;28;20214;-63
2022/10/16 08:06:00;;;;;;;3.30;3.00;;;14.70;99.90;;;;;;5033286;28;20175;-63
2022/10/16 08:08:26;;;;;;;3.22;2.85;;;14.70;99.90;;;;;;5033280;28;20678;-63
2022/10/16 08:10:52;;;;;;;3.97;3.20;;;14.60;99.90;;;;;;5033191;28;20187;-63
2022/10/16 08:13:18;;;;;;;3.40;3.10;;;14.60;99.90;;;;;;5033715;28;20194;-62
2022/10/16 08:15:44;;;;;;;3.08;2.85;;;14.60;99.90;;;;;;5033254;28;20285;-63
2022/10/16 08:18:12;;;;;;;2.85;2.65;;;14.70;99.90;;;;;;5033125;28;20236;-63
2022/10/16 08:20:41;;;;;;;3.13;2.90;;;15.00;99.90;;;;;;5033111;28;20175;-63
2022/10/16 08:23:07;;;;;;;3.40;3.10;;;15.30;99.90;;;;;;5033062;28;20253;-63
2022/10/16 08:25:36;;;;;;;3.35;2.75;;;15.50;99.90;;;;;;5033056;28;20202;-63
2022/10/16 08:28:05;;;;;;;2.80;2.60;;;15.70;99.90;;;;;;5034989;28;20194;-63
2022/10/16 08:30:31;;;;;;;2.97;2.78;;;15.90;99.90;;;;;;5037175;28;20171;-63
2022/10/16 08:32:57;;;;;;;5.03;3.08;;;16.10;99.90;;;;;;5037041;28;20269;-63
2022/10/16 08:35:24;;;;;;;3.95;3.00;;;16.30;99.90;;;;;;5035819;28;20207;-63
2022/10/16 08:37:49;;;;;;;3.60;3.05;;;16.40;99.90;;;;;;5037345;28;20671;-63
2022/10/16 08:40:27;;;;;;;6.45;2.95;;;16.40;99.90;;;;;;5037532;28;20183;-63
2022/10/16 08:42:55;;;;;;;3.25;2.90;;;16.40;99.90;;;;;;5036904;28;20276;-63
2022/10/16 08:45:26;;;;;;;2.90;2.70;;;16.60;99.90;;;;;;5037077;28;20228;-63
2022/10/16 08:48:19;;;;;;;2.92;2.72;;;16.70;99.90;;;;;;5036852;28;20269;-64
2022/10/16 08:50:47;;;;;;;3.13;2.70;;;16.80;99.90;;;;;;5035616;28;20183;-63
2022/10/16 08:53:23;;;;;;;3.00;2.80;;;16.90;99.90;;;;;;5036755;28;20198;-63
2022/10/16 08:55:52;;;;;;;3.38;2.80;;;16.90;99.90;;;;;;5036957;28;20194;-62
2022/10/16 08:58:28;;;;;;;3.63;2.90;;;16.90;99.90;;;;;;5036974;28;20171;-63
2022/10/16 09:01:00;;;;;;;2.80;2.50;;;17.00;99.90;;;;;;5036863;28;20623;-63
2022/10/16 09:04:00;;;;;;;4.95;2.47;;;17.10;99.90;;;;;;5036674;28;20195;-63
2022/10/16 09:06:38;;;;;;;2.95;2.42;;;16.90;99.90;;;;;;5036055;28;20194;-63
2022/10/16 09:09:19;;;;;;;3.35;2.67;;;17.00;99.90;;;;;;5036545;28;20237;-63
2022/10/16 09:11:47;;;;;;;6.35;2.63;;;16.90;99.90;;;;;;5036451;28;20233;-63
2022/10/16 09:14:41;;;;;;;2.78;2.50;;;17.00;99.90;;;;;;5035342;28;20256;-63
2022/10/16 09:17:12;;;;;;;2.72;2.40;;;17.00;99.90;;;;;;5036440;28;20194;-63
2022/10/16 09:19:46;;;;;;;6.00;2.55;;;17.10;99.90;;;;;;5035043;28;20189;-62
2022/10/16 09:22:17;;;;;;;2.97;2.40;;;17.10;99.90;;;;;;5036202;28;20329;-63
2022/10/16 09:24:43;;;;;;;3.17;2.10;;;17.10;99.90;;;;;;5036198;28;20203;-63
2022/10/16 09:27:14;;;;;;;4.63;2.60;;;17.00;99.90;;;;;;5036536;28;20222;-63
2022/10/16 09:29:40;;;;;;;4.30;2.10;;;17.00;99.90;;;;;;5036493;28;20160;-63
2022/10/16 09:32:17;;;;;;;4.57;2.30;;;17.00;99.90;;;;;;5036045;28;20167;-64
2022/10/16 09:34:50;;;;;;;4.65;2.25;;;17.00;99.90;;;;;;5035783;28;20249;-63
2022/10/16 09:37:19;;;;;;;2.53;2.30;;;17.00;99.90;;;;;;5036339;28;20178;-63
2022/10/16 09:39:54;;;;;;;5.32;2.00;;;17.00;99.90;;;;;;5035930;28;20568;-63
2022/10/16 09:42:37;;;;;;;6.55;2.30;;;17.00;99.90;;;;;;5035887;28;20194;-63
2022/10/16 09:45:03;;;;;;;2.40;2.20;;;16.90;99.90;;;;;;5036129;28;20191;-63
2022/10/16 09:47:31;;;;;;;4.00;2.15;;;16.80;99.90;;;;;;5035532;28;20190;-63
2022/10/16 09:50:01;;;;;;;3.17;2.20;;;16.80;99.90;;;;;;5035911;28;20183;-64
2022/10/16 09:52:29;;;;;;;2.20;2.00;;;17.00;99.90;;;;;;5035949;28;20191;-63
2022/10/16 09:55:00;;;;;;;2.40;2.20;;;17.00;99.90;;;;;;5035682;28;20190;-63
2022/10/16 09:57:26;;;;;;;2.50;1.90;;;17.10;99.90;;;;;;5035946;28;20187;-63
2022/10/16 09:59:56;;;;;;;3.50;2.03;;;17.10;99.90;;;;;;5035582;28;20175;-63
2022/10/16 10:02:35;;;;;;;2.75;2.08;;;17.10;99.90;;;;;;5035503;28;20322;-63
2022/10/16 10:05:02;;;;;;;5.55;2.30;;;17.10;99.90;;;;;;5035894;28;20638;-63
2022/10/16 10:07:35;;;;;;;4.25;2.17;;;17.10;99.90;;;;;;5036032;28;20252;-63
2022/10/16 10:10:03;;;;;;;3.85;2.30;;;17.00;99.90;;;;;;5034144;28;20272;-63
2022/10/16 10:12:36;;;;;;;2.58;2.08;;;16.90;99.90;;;;;;5035274;28;20650;-63
2022/10/16 10:15:10;;;;;;;1.92;1.83;;;16.80;99.90;;;;;;5035837;28;20183;-63
2022/10/16 10:17:50;;;;;;;3.17;2.00;;;16.70;99.90;;;;;;5035265;28;20186;-63
2022/10/16 10:20:25;;;;;;;4.18;2.05;;;16.80;99.90;;;;;;5035548;28;20168;-62
2022/10/16 10:22:51;;;;;;;2.15;2.00;;;16.80;99.90;;;;;;5035080;28;20186;-64
2022/10/16 10:25:33;;;;;;;2.92;2.15;;;16.70;99.90;;;;;;5036428;28;20171;-65
2022/10/16 10:28:17;;;;;;;5.18;2.05;;;16.70;99.90;;;;;;5033914;28;20201;-65
2022/10/16 10:31:12;;;;;;;4.35;2.30;;;16.80;99.90;;;;;;5035161;28;20264;-65
2022/10/16 10:34:00;;;;;;;2.85;1.95;;;17.00;99.90;;;;;;5034958;28;20684;-65
2022/10/16 10:36:29;;;;;;;3.45;2.20;;;17.30;99.90;;;;;;5035571;28;20191;-65
2022/10/16 10:39:01;;;;;;;6.07;2.10;;;17.60;99.90;;;;;;5033611;28;20229;-66
2022/10/16 10:41:29;;;;;;;4.57;2.45;;;17.80;99.90;;;;;;5035372;28;20171;-66
2022/10/16 10:43:58;;;;;;;2.97;2.08;;;17.90;99.90;;;;;;5033458;28;20206;-66
2022/10/16 10:46:35;;;;;;;2.88;2.05;;;18.10;99.90;;;;;;5034529;28;20160;-66
2022/10/16 10:49:16;;;;;;;4.57;2.10;;;18.20;99.90;;;;;;5034737;28;20186;-66
2022/10/16 10:52:13;;;;;;;2.22;1.88;;;18.40;99.90;;;;;;5034167;28;20163;-66
2022/10/16 10:54:50;;;;;;;4.60;1.85;;;18.30;99.90;;;;;;5034700;28;20168;-66
2022/10/16 10:57:32;;;;;;;6.00;2.00;;;18.20;99.90;;;;;;5034530;28;20632;-64
2022/10/16 11:00:12;;;;;;;2.00;1.85;;;18.00;99.90;;;;;;5034400;28;20190;-64
2022/10/16 11:02:44;;;;;;;2.47;1.98;;;17.90;99.90;;;;;;5034324;28;20195;-64
2022/10/16 11:05:28;;;;;;;2.88;1.95;;;17.90;99.90;;;;;;5034703;28;20187;-64
2022/10/16 11:07:59;;;;;;;2.33;1.85;;;17.90;99.90;;;;;;5034320;28;20178;-64
2022/10/16 11:10:30;;;;;;;4.38;1.90;;;18.00;99.90;;;;;;5034252;28;20176;-64
2022/10/16 11:13:21;;;;;;;8.45;2.35;;;18.20;99.90;;;;;;5034102;28;20199;-64
2022/10/16 11:15:50;;;;;;;4.28;2.00;;;18.30;99.90;;;;;;5032818;28;20222;-64
2022/10/16 11:18:24;;;;;;;3.55;1.88;;;18.50;99.90;;;;;;5033923;28;20183;-64
2022/10/16 11:21:13;;;;;;;3.60;2.00;;;18.80;99.90;;;;;;5034379;28;20160;-64
2022/10/16 11:23:50;;;;;;;2.72;1.90;;;18.80;99.90;;;;;;5034061;28;20277;-64
2022/10/16 11:26:33;;;;;;;2.38;2.00;;;19.00;99.90;;;;;;5034030;28;20174;-64
2022/10/16 11:29:01;;;;;;;3.60;1.88;;;19.20;99.90;;;;;;5034106;28;20711;-64
2022/10/16 11:31:27;;;;;;;2.83;2.03;;;19.30;99.90;;;;;;5033991;28;20245;-64
2022/10/16 11:34:21;;;;;;;3.17;1.90;;;19.40;99.90;;;;;;5032554;28;20202;-64
2022/10/16 11:36:47;;;;;;;3.95;1.90;;;19.40;99.90;;;;;;5033682;28;20195;-64
2022/10/16 11:39:31;;;;;;;4.30;2.25;;;19.50;99.90;;;;;;5032459;28;20171;-64
2022/10/16 11:42:09;;;;;;;2.40;1.75;;;19.50;99.90;;;;;;5033684;28;20197;-64
2022/10/16 11:44:53;;;;;;;2.25;1.88;;;19.60;99.90;;;;;;5033645;28;20238;-64
2022/10/16 11:47:39;;;;;;;1.80;1.70;;;19.80;99.90;;;;;;5033597;28;20193;-64
2022/10/16 11:50:28;;;;;;;2.03;1.80;;;19.60;99.90;;;;;;5033538;28;20167;-64
2022/10/16 11:53:15;;;;;;;2.13;1.77;;;19.40;99.90;;;;;;5032150;28;20203;-63
2022/10/16 11:55:43;;;;;;;2.90;1.85;;;19.40;99.90;;;;;;5033375;28;20647;-64
2022/10/16 11:58:46;;;;;;;6.22;2.10;;;19.50;99.90;;;;;;5032149;28;20655;-64
2022/10/16 12:01:30;;;;;;;2.55;1.90;;;19.70;99.90;;;;;;5033053;28;20177;-64
2022/10/16 12:03:58;;;;;;;1.92;1.80;;;20.00;99.90;;;;;;5033161;28;20186;-64
2022/10/16 12:06:33;;;;;;;5.20;1.90;;;19.90;99.90;;;;;;5033670;28;20213;-66
2022/10/16 12:09:01;;;;;;;4.00;1.52;;;19.80;99.90;;;;;;5033516;28;20233;-64
2022/10/16 12:11:26;;;;;;;5.72;1.95;;;19.50;99.90;;;;;;5032175;28;20190;-64
2022/10/16 12:14:07;;;;;;;3.65;1.60;;;19.50;99.90;;;;;;5033348;28;20226;-64
2022/10/16 12:16:33;;;;;;;3.67;1.70;;;19.80;99.90;;;;;;5033048;28;20213;-64
2022/10/16 12:19:17;;;;;;;3.08;1.80;;;19.80;99.90;;;;;;5033263;28;20183;-63
2022/10/16 12:21:44;;;;;;;3.75;1.83;;;19.90;99.90;;;;;;5033237;28;20217;-64
2022/10/16 12:24:38;;;;;;;3.22;1.60;;;20.10;99.90;;;;;;5033370;28;20191;-64
2022/10/16 12:27:27;;;;;;;1.60;1.50;;;20.30;99.90;;;;;;5033483;28;20167;-64
2022/10/16 12:29:59;;;;;;;2.70;1.55;;;20.40;99.90;;;;;;5033543;28;20163;-64
2022/10/16 12:32:39;;;;;;;1.73;1.60;;;20.40;99.90;;;;;;5032915;28;20281;-64
2022/10/16 12:35:16;;;;;;;5.65;1.80;;;20.20;99.90;;;;;;5032962;28;20199;-63
2022/10/16 12:37:43;;;;;;;2.67;1.80;;;20.40;99.90;;;;;;5033044;28;20155;-63
2022/10/16 12:40:30;;;;;;;3.22;1.60;;;20.20;99.90;;;;;;5033077;28;20286;-65
2022/10/16 12:42:57;;;;;;;1.60;1.50;;;20.00;99.90;;;;;;5033103;28;20282;-64
2022/10/16 12:45:33;;;;;;;1.80;1.33;;;20.10;99.90;;;;;;5033048;28;20167;-64
2022/10/16 12:48:01;;;;;;;2.92;1.30;;;20.40;99.90;;;;;;5032787;28;20185;-65
2022/10/16 12:50:33;;;;;;;2.00;1.50;;;20.60;99.90;;;;;;5032916;28;20226;-64
2022/10/16 12:53:00;;;;;;;1.50;1.40;;;20.20;99.90;;;;;;5033416;28;20195;-64
2022/10/16 12:55:29;;;;;;;1.73;1.50;;;19.90;99.90;;;;;;5032816;28;20313;-64
2022/10/16 12:57:58;;;;;;;1.73;1.63;;;19.70;99.90;;;;;;5032888;28;20167;-64
2022/10/16 13:00:23;;;;;;;2.13;1.55;;;19.60;99.90;;;;;;5032826;28;20186;-64
2022/10/16 13:02:58;;;;;;;1.50;1.40;;;19.50;99.90;;;;;;5032768;28;20199;-64